sensor_id;sensor_type;location;lat;lon;timestamp;pressure;altitude;pressure_sealevel;temperature
10058;BMP180;5068;51.286;7.518;2022-08-07T00:01:18;100416.00;;;12.90
10058;BMP180;5068;51.286;7.518;2022-08-07T00:03:13;100415.00;;;12.90
10058;BMP180;5068;51.286;7.518;2022-08-07T00:04:51;100414.00;;;12.90
10058;BMP180;5068;51.286;7.518;2022-08-07T00:06:25;100411.00;;;12.90
10058;BMP180;5068;51.286;7.518;2022-08-07T00:08:06;100414.00;;;12.90
10058;BMP180;5068;51.286;7.518;2022-08-07T00:09:45;100410.00;;;12.90
10058;BMP180;5068;51.286;7.518;2022-08-07T00:11:39;100408.00;;;12.90
10058;BMP180;5068;51.286;7.518;2022-08-07T00:13:26;100409.00;;;12.90
10058;BMP180;5068;51.286;7.518;2022-08-07T00:15:01;100409.00;;;12.90
10058;BMP180;5068;51.286;7.518;2022-08-07T00:16:50;100407.00;;;12.90
10058;BMP180;5068;51.286;7.518;2022-08-07T00:18:27;100409.00;;;12.80
10058;BMP180;5068;51.286;7.518;2022-08-07T00:20:07;100408.00;;;12.80
10058;BMP180;5068;51.286;7.518;2022-08-07T00:21:47;100408.00;;;12.70
10058;BMP180;5068;51.286;7.518;2022-08-07T00:23:29;100405.00;;;12.70
10058;BMP180;5068;51.286;7.518;2022-08-07T00:25:06;100402.00;;;12.60
10058;BMP180;5068;51.286;7.518;2022-08-07T00:26:53;100402.00;;;12.60
10058;BMP180;5068;51.286;7.518;2022-08-07T00:28:39;100400.00;;;12.60
10058;BMP180;5068;51.286;7.518;2022-08-07T00:30:28;100388.00;;;12.50
10058;BMP180;5068;51.286;7.518;2022-08-07T00:32:04;100389.00;;;12.50
10058;BMP180;5068;51.286;7.518;2022-08-07T00:33:41;100393.00;;;12.50
10058;BMP180;5068;51.286;7.518;2022-08-07T00:35:19;100397.00;;;12.50
10058;BMP180;5068;51.286;7.518;2022-08-07T00:36:54;100398.00;;;12.50
10058;BMP180;5068;51.286;7.518;2022-08-07T00:38:31;100390.00;;;12.50
10058;BMP180;5068;51.286;7.518;2022-08-07T00:40:12;100390.00;;;12.50
10058;BMP180;5068;51.286;7.518;2022-08-07T00:41:49;100389.00;;;12.50
10058;BMP180;5068;51.286;7.518;2022-08-07T00:43:32;100390.00;;;12.50
10058;BMP180;5068;51.286;7.518;2022-08-07T00:45:29;100378.00;;;12.50
10058;BMP180;5068;51.286;7.518;2022-08-07T00:47:08;100390.00;;;12.40
10058;BMP180;5068;51.286;7.518;2022-08-07T00:49:07;100388.00;;;12.40
10058;BMP180;5068;51.286;7.518;2022-08-07T00:50:57;100378.00;;;12.40
10058;BMP180;5068;51.286;7.518;2022-08-07T00:52:35;100380.00;;;12.30
10058;BMP180;5068;51.286;7.518;2022-08-07T00:54:12;100379.00;;;12.30
10058;BMP180;5068;51.286;7.518;2022-08-07T00:55:54;100378.00;;;12.30
10058;BMP180;5068;51.286;7.518;2022-08-07T00:57:35;100376.00;;;12.20
10058;BMP180;5068;51.286;7.518;2022-08-07T00:59:28;100377.00;;;12.20
10058;BMP180;5068;51.286;7.518;2022-08-07T01:01:09;100381.00;;;12.20
10058;BMP180;5068;51.286;7.518;2022-08-07T01:02:50;100374.00;;;12.10
10058;BMP180;5068;51.286;7.518;2022-08-07T01:04:27;100376.00;;;12.10
10058;BMP180;5068;51.286;7.518;2022-08-07T01:06:07;100373.00;;;12.10
10058;BMP180;5068;51.286;7.518;2022-08-07T01:07:44;100370.00;;;12.10
10058;BMP180;5068;51.286;7.518;2022-08-07T01:09:22;100369.00;;;12.10
10058;BMP180;5068;51.286;7.518;2022-08-07T01:11:20;100374.00;;;12.10
10058;BMP180;5068;51.286;7.518;2022-08-07T01:13:16;100362.00;;;12.10
10058;BMP180;5068;51.286;7.518;2022-08-07T01:14:54;100363.00;;;12.10
10058;BMP180;5068;51.286;7.518;2022-08-07T01:16:35;100365.00;;;12.00
10058;BMP180;5068;51.286;7.518;2022-08-07T01:18:17;100366.00;;;12.00
10058;BMP180;5068;51.286;7.518;2022-08-07T01:20:04;100362.00;;;12.00
10058;BMP180;5068;51.286;7.518;2022-08-07T01:21:41;100364.00;;;12.00
10058;BMP180;5068;51.286;7.518;2022-08-07T01:23:18;100364.00;;;11.90
10058;BMP180;5068;51.286;7.518;2022-08-07T01:25:10;100366.00;;;11.90
10058;BMP180;5068;51.286;7.518;2022-08-07T01:27:05;100363.00;;;11.90
10058;BMP180;5068;51.286;7.518;2022-08-07T01:28:52;100361.00;;;11.90
10058;BMP180;5068;51.286;7.518;2022-08-07T01:30:31;100357.00;;;11.90
10058;BMP180;5068;51.286;7.518;2022-08-07T01:32:12;100364.00;;;11.90
10058;BMP180;5068;51.286;7.518;2022-08-07T01:33:51;100365.00;;;11.90
10058;BMP180;5068;51.286;7.518;2022-08-07T01:35:33;100364.00;;;11.80
10058;BMP180;5068;51.286;7.518;2022-08-07T01:37:31;100371.00;;;11.80
10058;BMP180;5068;51.286;7.518;2022-08-07T01:39:08;100361.00;;;11.70
10058;BMP180;5068;51.286;7.518;2022-08-07T01:40:46;100364.00;;;11.70
10058;BMP180;5068;51.286;7.518;2022-08-07T01:42:29;100365.00;;;11.70
10058;BMP180;5068;51.286;7.518;2022-08-07T01:44:14;100368.00;;;11.70
10058;BMP180;5068;51.286;7.518;2022-08-07T01:45:51;100362.00;;;11.70
10058;BMP180;5068;51.286;7.518;2022-08-07T01:47:26;100364.00;;;11.70
10058;BMP180;5068;51.286;7.518;2022-08-07T01:49:22;100359.00;;;11.60
10058;BMP180;5068;51.286;7.518;2022-08-07T01:51:02;100360.00;;;11.60
10058;BMP180;5068;51.286;7.518;2022-08-07T01:53:01;100360.00;;;11.60
10058;BMP180;5068;51.286;7.518;2022-08-07T01:54:47;100355.00;;;11.60
10058;BMP180;5068;51.286;7.518;2022-08-07T01:56:25;100355.00;;;11.60
10058;BMP180;5068;51.286;7.518;2022-08-07T01:58:07;100355.00;;;11.60
10058;BMP180;5068;51.286;7.518;2022-08-07T02:01:55;100357.00;;;11.50
10058;BMP180;5068;51.286;7.518;2022-08-07T02:03:43;100358.00;;;11.50
10058;BMP180;5068;51.286;7.518;2022-08-07T02:05:31;100357.00;;;11.50
10058;BMP180;5068;51.286;7.518;2022-08-07T02:07:25;100352.00;;;11.50
10058;BMP180;5068;51.286;7.518;2022-08-07T02:09:26;100354.00;;;11.40
10058;BMP180;5068;51.286;7.518;2022-08-07T02:11:22;100351.00;;;11.40
10058;BMP180;5068;51.286;7.518;2022-08-07T02:13:21;100353.00;;;11.40
10058;BMP180;5068;51.286;7.518;2022-08-07T02:15:23;100351.00;;;11.40
10058;BMP180;5068;51.286;7.518;2022-08-07T02:16:59;100357.00;;;11.40
10058;BMP180;5068;51.286;7.518;2022-08-07T02:18:39;100353.00;;;11.40
10058;BMP180;5068;51.286;7.518;2022-08-07T02:20:22;100347.00;;;11.30
10058;BMP180;5068;51.286;7.518;2022-08-07T02:22:03;100359.00;;;11.30
10058;BMP180;5068;51.286;7.518;2022-08-07T02:23:40;100350.00;;;11.30
10058;BMP180;5068;51.286;7.518;2022-08-07T02:25:19;100354.00;;;11.30
10058;BMP180;5068;51.286;7.518;2022-08-07T02:27:19;100348.00;;;11.30
10058;BMP180;5068;51.286;7.518;2022-08-07T02:28:55;100356.00;;;11.30
10058;BMP180;5068;51.286;7.518;2022-08-07T02:30:35;100352.00;;;11.30
10058;BMP180;5068;51.286;7.518;2022-08-07T02:32:14;100350.00;;;11.20
10058;BMP180;5068;51.286;7.518;2022-08-07T02:33:56;100360.00;;;11.20
10058;BMP180;5068;51.286;7.518;2022-08-07T02:35:48;100347.00;;;11.20
10058;BMP180;5068;51.286;7.518;2022-08-07T02:37:48;100353.00;;;11.10
10058;BMP180;5068;51.286;7.518;2022-08-07T02:39:25;100352.00;;;11.10
10058;BMP180;5068;51.286;7.518;2022-08-07T02:41:26;100354.00;;;11.10
10058;BMP180;5068;51.286;7.518;2022-08-07T02:43:08;100349.00;;;11.00
10058;BMP180;5068;51.286;7.518;2022-08-07T02:44:48;100352.00;;;11.00
10058;BMP180;5068;51.286;7.518;2022-08-07T02:46:32;100340.00;;;11.00
10058;BMP180;5068;51.286;7.518;2022-08-07T02:48:09;100338.00;;;10.90
10058;BMP180;5068;51.286;7.518;2022-08-07T02:49:51;100336.00;;;10.90
10058;BMP180;5068;51.286;7.518;2022-08-07T02:51:36;100340.00;;;10.90
10058;BMP180;5068;51.286;7.518;2022-08-07T02:53:27;100332.00;;;10.90
10058;BMP180;5068;51.286;7.518;2022-08-07T02:55:16;100335.00;;;10.90
10058;BMP180;5068;51.286;7.518;2022-08-07T02:57:17;100337.00;;;10.90
10058;BMP180;5068;51.286;7.518;2022-08-07T02:58:54;100336.00;;;10.80
10058;BMP180;5068;51.286;7.518;2022-08-07T03:00:35;100332.00;;;10.80
10058;BMP180;5068;51.286;7.518;2022-08-07T03:02:13;100333.00;;;10.80
10058;BMP180;5068;51.286;7.518;2022-08-07T03:03:51;100334.00;;;10.80
10058;BMP180;5068;51.286;7.518;2022-08-07T03:05:31;100339.00;;;10.80
10058;BMP180;5068;51.286;7.518;2022-08-07T03:07:09;100341.00;;;10.80
10058;BMP180;5068;51.286;7.518;2022-08-07T03:08:49;100343.00;;;10.70
10058;BMP180;5068;51.286;7.518;2022-08-07T03:10:23;100346.00;;;10.70
10058;BMP180;5068;51.286;7.518;2022-08-07T03:11:58;100336.00;;;10.80
10058;BMP180;5068;51.286;7.518;2022-08-07T03:13:37;100340.00;;;10.70
10058;BMP180;5068;51.286;7.518;2022-08-07T03:15:25;100336.00;;;10.70
10058;BMP180;5068;51.286;7.518;2022-08-07T03:17:20;100341.00;;;10.70
10058;BMP180;5068;51.286;7.518;2022-08-07T03:18:55;100334.00;;;10.60
10058;BMP180;5068;51.286;7.518;2022-08-07T03:20:30;100339.00;;;10.60
10058;BMP180;5068;51.286;7.518;2022-08-07T03:22:06;100343.00;;;10.60
10058;BMP180;5068;51.286;7.518;2022-08-07T03:23:54;100336.00;;;10.60
10058;BMP180;5068;51.286;7.518;2022-08-07T03:25:52;100352.00;;;10.60
10058;BMP180;5068;51.286;7.518;2022-08-07T03:27:32;100343.00;;;10.60
10058;BMP180;5068;51.286;7.518;2022-08-07T03:29:37;100341.00;;;10.50
10058;BMP180;5068;51.286;7.518;2022-08-07T03:31:24;100346.00;;;10.50
10058;BMP180;5068;51.286;7.518;2022-08-07T03:33:19;100339.00;;;10.50
10058;BMP180;5068;51.286;7.518;2022-08-07T03:35:15;100340.00;;;10.60
10058;BMP180;5068;51.286;7.518;2022-08-07T03:37:01;100341.00;;;10.60
10058;BMP180;5068;51.286;7.518;2022-08-07T03:38:49;100335.00;;;10.50
10058;BMP180;5068;51.286;7.518;2022-08-07T03:40:29;100339.00;;;10.50
10058;BMP180;5068;51.286;7.518;2022-08-07T03:42:11;100338.00;;;10.50
10058;BMP180;5068;51.286;7.518;2022-08-07T03:43:45;100330.00;;;10.50
10058;BMP180;5068;51.286;7.518;2022-08-07T03:45:35;100335.00;;;10.50
10058;BMP180;5068;51.286;7.518;2022-08-07T03:47:17;100334.00;;;10.40
10058;BMP180;5068;51.286;7.518;2022-08-07T03:48:55;100332.00;;;10.40
10058;BMP180;5068;51.286;7.518;2022-08-07T03:50:40;100332.00;;;10.40
10058;BMP180;5068;51.286;7.518;2022-08-07T03:52:35;100332.00;;;10.40
10058;BMP180;5068;51.286;7.518;2022-08-07T03:54:18;100336.00;;;10.30
10058;BMP180;5068;51.286;7.518;2022-08-07T03:56:21;100325.00;;;10.30
10058;BMP180;5068;51.286;7.518;2022-08-07T03:58:06;100324.00;;;10.30
10058;BMP180;5068;51.286;7.518;2022-08-07T04:00:06;100333.00;;;10.30
10058;BMP180;5068;51.286;7.518;2022-08-07T04:01:55;100326.00;;;10.30
10058;BMP180;5068;51.286;7.518;2022-08-07T04:03:29;100320.00;;;10.30
10058;BMP180;5068;51.286;7.518;2022-08-07T04:05:23;100331.00;;;10.20
10058;BMP180;5068;51.286;7.518;2022-08-07T04:07:15;100333.00;;;10.20
10058;BMP180;5068;51.286;7.518;2022-08-07T04:08:55;100334.00;;;10.20
10058;BMP180;5068;51.286;7.518;2022-08-07T04:10:30;100334.00;;;10.20
10058;BMP180;5068;51.286;7.518;2022-08-07T04:12:10;100332.00;;;10.20
10058;BMP180;5068;51.286;7.518;2022-08-07T04:14:01;100321.00;;;10.10
10058;BMP180;5068;51.286;7.518;2022-08-07T04:15:56;100325.00;;;10.10
10058;BMP180;5068;51.286;7.518;2022-08-07T04:17:31;100321.00;;;10.10
10058;BMP180;5068;51.286;7.518;2022-08-07T04:19:26;100318.00;;;10.10
10058;BMP180;5068;51.286;7.518;2022-08-07T04:21:20;100326.00;;;10.00
10058;BMP180;5068;51.286;7.518;2022-08-07T04:23:03;100318.00;;;10.00
10058;BMP180;5068;51.286;7.518;2022-08-07T04:24:42;100330.00;;;10.00
10058;BMP180;5068;51.286;7.518;2022-08-07T04:26:20;100324.00;;;10.10
10058;BMP180;5068;51.286;7.518;2022-08-07T04:28:00;100324.00;;;10.00
10058;BMP180;5068;51.286;7.518;2022-08-07T04:29:37;100325.00;;;10.10
10058;BMP180;5068;51.286;7.518;2022-08-07T04:31:32;100334.00;;;10.10
10058;BMP180;5068;51.286;7.518;2022-08-07T04:33:31;100326.00;;;10.10
10058;BMP180;5068;51.286;7.518;2022-08-07T04:35:10;100323.00;;;10.10
10058;BMP180;5068;51.286;7.518;2022-08-07T04:36:48;100324.00;;;10.10
10058;BMP180;5068;51.286;7.518;2022-08-07T04:38:25;100330.00;;;10.10
10058;BMP180;5068;51.286;7.518;2022-08-07T04:40:03;100330.00;;;10.10
10058;BMP180;5068;51.286;7.518;2022-08-07T04:41:39;100335.00;;;10.10
10058;BMP180;5068;51.286;7.518;2022-08-07T04:43:29;100333.00;;;10.10
10058;BMP180;5068;51.286;7.518;2022-08-07T04:45:39;100335.00;;;10.00
10058;BMP180;5068;51.286;7.518;2022-08-07T04:47:51;100345.00;;;10.00
10058;BMP180;5068;51.286;7.518;2022-08-07T04:49:51;100342.00;;;10.00
10058;BMP180;5068;51.286;7.518;2022-08-07T04:51:53;100332.00;;;10.00
10058;BMP180;5068;51.286;7.518;2022-08-07T04:53:38;100340.00;;;10.00
10058;BMP180;5068;51.286;7.518;2022-08-07T04:55:49;100338.00;;;10.00
10058;BMP180;5068;51.286;7.518;2022-08-07T04:57:56;100336.00;;;10.00
10058;BMP180;5068;51.286;7.518;2022-08-07T05:00:03;100333.00;;;10.00
10058;BMP180;5068;51.286;7.518;2022-08-07T05:02:01;100334.00;;;10.00
10058;BMP180;5068;51.286;7.518;2022-08-07T05:03:45;100330.00;;;10.00
10058;BMP180;5068;51.286;7.518;2022-08-07T05:05:51;100336.00;;;10.00
10058;BMP180;5068;51.286;7.518;2022-08-07T05:07:37;100336.00;;;10.00
10058;BMP180;5068;51.286;7.518;2022-08-07T05:09:28;100337.00;;;10.00
10058;BMP180;5068;51.286;7.518;2022-08-07T05:11:26;100330.00;;;10.00
10058;BMP180;5068;51.286;7.518;2022-08-07T05:13:30;100335.00;;;10.00
10058;BMP180;5068;51.286;7.518;2022-08-07T05:15:35;100339.00;;;10.00
10058;BMP180;5068;51.286;7.518;2022-08-07T05:17:17;100340.00;;;10.00
10058;BMP180;5068;51.286;7.518;2022-08-07T05:19:19;100336.00;;;10.00
10058;BMP180;5068;51.286;7.518;2022-08-07T05:21:22;100342.00;;;10.00
10058;BMP180;5068;51.286;7.518;2022-08-07T05:23:32;100340.00;;;10.00
10058;BMP180;5068;51.286;7.518;2022-08-07T05:25:17;100343.00;;;10.00
10058;BMP180;5068;51.286;7.518;2022-08-07T05:27:15;100348.00;;;10.10
10058;BMP180;5068;51.286;7.518;2022-08-07T05:29:13;100344.00;;;10.10
10058;BMP180;5068;51.286;7.518;2022-08-07T05:30:52;100351.00;;;10.10
10058;BMP180;5068;51.286;7.518;2022-08-07T05:32:35;100349.00;;;10.20
10058;BMP180;5068;51.286;7.518;2022-08-07T05:34:13;100355.00;;;10.20
10058;BMP180;5068;51.286;7.518;2022-08-07T05:35:54;100352.00;;;10.20
10058;BMP180;5068;51.286;7.518;2022-08-07T05:37:33;100348.00;;;10.30
10058;BMP180;5068;51.286;7.518;2022-08-07T05:39:15;100353.00;;;10.30
10058;BMP180;5068;51.286;7.518;2022-08-07T05:41:11;100340.00;;;10.40
10058;BMP180;5068;51.286;7.518;2022-08-07T05:42:53;100345.00;;;10.40
10058;BMP180;5068;51.286;7.518;2022-08-07T05:44:33;100346.00;;;10.40
10058;BMP180;5068;51.286;7.518;2022-08-07T05:46:19;100343.00;;;10.50
10058;BMP180;5068;51.286;7.518;2022-08-07T05:47:59;100349.00;;;10.50
10058;BMP180;5068;51.286;7.518;2022-08-07T05:49:42;100355.00;;;10.60
10058;BMP180;5068;51.286;7.518;2022-08-07T05:51:23;100348.00;;;10.60
10058;BMP180;5068;51.286;7.518;2022-08-07T05:52:58;100344.00;;;10.70
10058;BMP180;5068;51.286;7.518;2022-08-07T05:54:35;100350.00;;;10.70
10058;BMP180;5068;51.286;7.518;2022-08-07T05:56:30;100354.00;;;10.80
10058;BMP180;5068;51.286;7.518;2022-08-07T05:58:06;100346.00;;;10.90
10058;BMP180;5068;51.286;7.518;2022-08-07T05:59:45;100346.00;;;10.90
10058;BMP180;5068;51.286;7.518;2022-08-07T06:01:57;100356.00;;;11.00
10058;BMP180;5068;51.286;7.518;2022-08-07T06:03:35;100350.00;;;11.10
10058;BMP180;5068;51.286;7.518;2022-08-07T06:05:33;100346.00;;;11.10
10058;BMP180;5068;51.286;7.518;2022-08-07T06:07:14;100343.00;;;11.20
10058;BMP180;5068;51.286;7.518;2022-08-07T06:09:08;100347.00;;;11.30
10058;BMP180;5068;51.286;7.518;2022-08-07T06:10:49;100347.00;;;11.40
10058;BMP180;5068;51.286;7.518;2022-08-07T06:12:34;100346.00;;;11.40
10058;BMP180;5068;51.286;7.518;2022-08-07T06:14:12;100354.00;;;11.50
10058;BMP180;5068;51.286;7.518;2022-08-07T06:16:06;100357.00;;;11.60
10058;BMP180;5068;51.286;7.518;2022-08-07T06:17:46;100356.00;;;11.70
10058;BMP180;5068;51.286;7.518;2022-08-07T06:19:30;100363.00;;;11.80
10058;BMP180;5068;51.286;7.518;2022-08-07T06:21:25;100353.00;;;11.90
10058;BMP180;5068;51.286;7.518;2022-08-07T06:23:22;100353.00;;;12.00
10058;BMP180;5068;51.286;7.518;2022-08-07T06:25:16;100357.00;;;12.10
10058;BMP180;5068;51.286;7.518;2022-08-07T06:26:50;100357.00;;;12.10
10058;BMP180;5068;51.286;7.518;2022-08-07T06:28:24;100350.00;;;12.20
10058;BMP180;5068;51.286;7.518;2022-08-07T06:30:02;100340.00;;;12.30
10058;BMP180;5068;51.286;7.518;2022-08-07T06:31:55;100348.00;;;12.40
10058;BMP180;5068;51.286;7.518;2022-08-07T06:33:30;100341.00;;;12.50
10058;BMP180;5068;51.286;7.518;2022-08-07T06:35:05;100336.00;;;12.60
10058;BMP180;5068;51.286;7.518;2022-08-07T06:36:50;100333.00;;;12.70
10058;BMP180;5068;51.286;7.518;2022-08-07T06:38:30;100326.00;;;12.80
10058;BMP180;5068;51.286;7.518;2022-08-07T06:40:09;100341.00;;;12.90
10058;BMP180;5068;51.286;7.518;2022-08-07T06:42:01;100325.00;;;13.00
10058;BMP180;5068;51.286;7.518;2022-08-07T06:43:56;100320.00;;;13.10
10058;BMP180;5068;51.286;7.518;2022-08-07T06:45:42;100331.00;;;13.20
10058;BMP180;5068;51.286;7.518;2022-08-07T06:47:18;100320.00;;;13.30
10058;BMP180;5068;51.286;7.518;2022-08-07T06:48:55;100322.00;;;13.40
10058;BMP180;5068;51.286;7.518;2022-08-07T06:50:35;100318.00;;;13.50
10058;BMP180;5068;51.286;7.518;2022-08-07T06:52:17;100325.00;;;13.60
10058;BMP180;5068;51.286;7.518;2022-08-07T06:54:10;100320.00;;;13.70
10058;BMP180;5068;51.286;7.518;2022-08-07T06:56:06;100322.00;;;13.80
10058;BMP180;5068;51.286;7.518;2022-08-07T06:57:50;100321.00;;;13.90
10058;BMP180;5068;51.286;7.518;2022-08-07T06:59:34;100322.00;;;14.00
10058;BMP180;5068;51.286;7.518;2022-08-07T07:01:32;100321.00;;;14.10
10058;BMP180;5068;51.286;7.518;2022-08-07T07:03:20;100317.00;;;14.20
10058;BMP180;5068;51.286;7.518;2022-08-07T07:05:19;100313.00;;;14.30
10058;BMP180;5068;51.286;7.518;2022-08-07T07:07:14;100313.00;;;14.40
10058;BMP180;5068;51.286;7.518;2022-08-07T07:09:25;100311.00;;;14.60
10058;BMP180;5068;51.286;7.518;2022-08-07T07:11:06;100310.00;;;14.70
10058;BMP180;5068;51.286;7.518;2022-08-07T07:13:10;100311.00;;;14.80
10058;BMP180;5068;51.286;7.518;2022-08-07T07:14:54;100303.00;;;14.90
10058;BMP180;5068;51.286;7.518;2022-08-07T07:16:38;100309.00;;;15.00
10058;BMP180;5068;51.286;7.518;2022-08-07T07:18:29;100305.00;;;15.10
10058;BMP180;5068;51.286;7.518;2022-08-07T07:20:28;100303.00;;;15.30
10058;BMP180;5068;51.286;7.518;2022-08-07T07:22:07;100302.00;;;15.40
10058;BMP180;5068;51.286;7.518;2022-08-07T07:24:02;100306.00;;;15.50
10058;BMP180;5068;51.286;7.518;2022-08-07T07:25:49;100304.00;;;15.60
10058;BMP180;5068;51.286;7.518;2022-08-07T07:27:53;100304.00;;;15.80
10058;BMP180;5068;51.286;7.518;2022-08-07T07:29:44;100303.00;;;15.90
10058;BMP180;5068;51.286;7.518;2022-08-07T07:31:46;100294.00;;;16.10
10058;BMP180;5068;51.286;7.518;2022-08-07T07:33:22;100296.00;;;16.20
10058;BMP180;5068;51.286;7.518;2022-08-07T07:35:08;100307.00;;;16.30
10058;BMP180;5068;51.286;7.518;2022-08-07T07:36:45;100305.00;;;16.50
10058;BMP180;5068;51.286;7.518;2022-08-07T07:38:25;100300.00;;;16.60
10058;BMP180;5068;51.286;7.518;2022-08-07T07:40:07;100292.00;;;16.80
10058;BMP180;5068;51.286;7.518;2022-08-07T07:41:49;100308.00;;;16.90
10058;BMP180;5068;51.286;7.518;2022-08-07T07:43:47;100300.00;;;17.10
10058;BMP180;5068;51.286;7.518;2022-08-07T07:45:42;100293.00;;;17.20
10058;BMP180;5068;51.286;7.518;2022-08-07T07:47:41;100291.00;;;17.40
10058;BMP180;5068;51.286;7.518;2022-08-07T07:49:27;100291.00;;;17.50
10058;BMP180;5068;51.286;7.518;2022-08-07T07:51:24;100287.00;;;17.70
10058;BMP180;5068;51.286;7.518;2022-08-07T07:53:23;100283.00;;;17.90
10058;BMP180;5068;51.286;7.518;2022-08-07T07:55:01;100283.00;;;18.00
10058;BMP180;5068;51.286;7.518;2022-08-07T07:56:37;100277.00;;;18.20
10058;BMP180;5068;51.286;7.518;2022-08-07T07:58:13;100278.00;;;18.30
10058;BMP180;5068;51.286;7.518;2022-08-07T07:59:58;100276.00;;;18.50
10058;BMP180;5068;51.286;7.518;2022-08-07T08:02:01;100284.00;;;18.70
10058;BMP180;5068;51.286;7.518;2022-08-07T08:03:42;100278.00;;;18.80
10058;BMP180;5068;51.286;7.518;2022-08-07T08:05:41;100275.00;;;19.00
10058;BMP180;5068;51.286;7.518;2022-08-07T08:07:29;100267.00;;;19.10
10058;BMP180;5068;51.286;7.518;2022-08-07T08:09:15;100281.00;;;19.30
10058;BMP180;5068;51.286;7.518;2022-08-07T08:10:55;100277.00;;;19.40
10058;BMP180;5068;51.286;7.518;2022-08-07T08:12:30;100273.00;;;19.60
10058;BMP180;5068;51.286;7.518;2022-08-07T08:14:32;100274.00;;;19.70
10058;BMP180;5068;51.286;7.518;2022-08-07T08:16:11;100278.00;;;19.90
10058;BMP180;5068;51.286;7.518;2022-08-07T08:17:53;100276.00;;;20.00
10058;BMP180;5068;51.286;7.518;2022-08-07T08:19:52;100268.00;;;20.20
10058;BMP180;5068;51.286;7.518;2022-08-07T08:21:49;100265.00;;;20.40
10058;BMP180;5068;51.286;7.518;2022-08-07T08:23:41;100268.00;;;20.60
10058;BMP180;5068;51.286;7.518;2022-08-07T08:25:35;100272.00;;;20.70
10058;BMP180;5068;51.286;7.518;2022-08-07T08:27:34;100264.00;;;20.90
10058;BMP180;5068;51.286;7.518;2022-08-07T08:29:14;100269.00;;;21.10
10058;BMP180;5068;51.286;7.518;2022-08-07T08:30:59;100264.00;;;21.20
10058;BMP180;5068;51.286;7.518;2022-08-07T08:32:52;100266.00;;;21.40
10058;BMP180;5068;51.286;7.518;2022-08-07T08:34:32;100262.00;;;21.50
10058;BMP180;5068;51.286;7.518;2022-08-07T08:36:09;100263.00;;;21.70
10058;BMP180;5068;51.286;7.518;2022-08-07T08:37:53;100267.00;;;21.80
10058;BMP180;5068;51.286;7.518;2022-08-07T08:39:33;100266.00;;;21.90
10058;BMP180;5068;51.286;7.518;2022-08-07T08:41:33;100265.00;;;22.10
10058;BMP180;5068;51.286;7.518;2022-08-07T08:43:39;100268.00;;;22.20
10058;BMP180;5068;51.286;7.518;2022-08-07T08:45:43;100269.00;;;22.30
10058;BMP180;5068;51.286;7.518;2022-08-07T08:47:42;100269.00;;;22.40
10058;BMP180;5068;51.286;7.518;2022-08-07T08:49:32;100271.00;;;22.50
10058;BMP180;5068;51.286;7.518;2022-08-07T08:51:35;100261.00;;;22.70
10058;BMP180;5068;51.286;7.518;2022-08-07T08:53:38;100261.00;;;22.80
10058;BMP180;5068;51.286;7.518;2022-08-07T08:55:24;100263.00;;;22.90
10058;BMP180;5068;51.286;7.518;2022-08-07T08:57:33;100253.00;;;23.10
10058;BMP180;5068;51.286;7.518;2022-08-07T08:59:25;100257.00;;;23.20
10058;BMP180;5068;51.286;7.518;2022-08-07T09:01:09;100265.00;;;23.30
10058;BMP180;5068;51.286;7.518;2022-08-07T09:02:58;100259.00;;;23.30
10058;BMP180;5068;51.286;7.518;2022-08-07T09:04:49;100258.00;;;23.40
10058;BMP180;5068;51.286;7.518;2022-08-07T09:06:39;100258.00;;;23.50
10058;BMP180;5068;51.286;7.518;2022-08-07T09:08:36;100260.00;;;23.60
10058;BMP180;5068;51.286;7.518;2022-08-07T09:10:21;100257.00;;;23.70
10058;BMP180;5068;51.286;7.518;2022-08-07T09:12:25;100254.00;;;23.80
10058;BMP180;5068;51.286;7.518;2022-08-07T09:14:11;100247.00;;;23.80
10058;BMP180;5068;51.286;7.518;2022-08-07T09:15:57;100261.00;;;23.90
10058;BMP180;5068;51.286;7.518;2022-08-07T09:18:15;100254.00;;;24.10
10058;BMP180;5068;51.286;7.518;2022-08-07T09:20:17;100246.00;;;24.10
10058;BMP180;5068;51.286;7.518;2022-08-07T09:22:20;100258.00;;;24.20
10058;BMP180;5068;51.286;7.518;2022-08-07T09:24:44;100252.00;;;24.30
10058;BMP180;5068;51.286;7.518;2022-08-07T09:26:44;100255.00;;;24.40
10058;BMP180;5068;51.286;7.518;2022-08-07T09:28:40;100253.00;;;24.50
10058;BMP180;5068;51.286;7.518;2022-08-07T09:30:55;100249.00;;;24.60
10058;BMP180;5068;51.286;7.518;2022-08-07T09:33:01;100248.00;;;24.70
10058;BMP180;5068;51.286;7.518;2022-08-07T09:35:05;100241.00;;;24.80
10058;BMP180;5068;51.286;7.518;2022-08-07T09:37:08;100241.00;;;24.90
10058;BMP180;5068;51.286;7.518;2022-08-07T09:38:54;100250.00;;;25.00
10058;BMP180;5068;51.286;7.518;2022-08-07T09:40:59;100244.00;;;25.10
10058;BMP180;5068;51.286;7.518;2022-08-07T09:42:49;100249.00;;;25.20
10058;BMP180;5068;51.286;7.518;2022-08-07T09:44:43;100249.00;;;25.30
10058;BMP180;5068;51.286;7.518;2022-08-07T09:47:01;100241.00;;;25.40
10058;BMP180;5068;51.286;7.518;2022-08-07T09:49:16;100245.00;;;25.50
10058;BMP180;5068;51.286;7.518;2022-08-07T09:51:35;100252.00;;;25.60
10058;BMP180;5068;51.286;7.518;2022-08-07T09:53:38;100248.00;;;25.60
10058;BMP180;5068;51.286;7.518;2022-08-07T09:55:54;100244.00;;;25.70
10058;BMP180;5068;51.286;7.518;2022-08-07T09:58:13;100243.00;;;25.80
10058;BMP180;5068;51.286;7.518;2022-08-07T10:00:13;100239.00;;;25.90
10058;BMP180;5068;51.286;7.518;2022-08-07T10:02:08;100237.00;;;26.00
10058;BMP180;5068;51.286;7.518;2022-08-07T10:04:20;100237.00;;;26.00
10058;BMP180;5068;51.286;7.518;2022-08-07T10:06:38;100232.00;;;26.10
10058;BMP180;5068;51.286;7.518;2022-08-07T10:08:45;100234.00;;;26.20
10058;BMP180;5068;51.286;7.518;2022-08-07T10:10:39;100236.00;;;26.30
10058;BMP180;5068;51.286;7.518;2022-08-07T10:12:51;100235.00;;;26.40
10058;BMP180;5068;51.286;7.518;2022-08-07T10:15:05;100229.00;;;26.50
10058;BMP180;5068;51.286;7.518;2022-08-07T10:17:05;100229.00;;;26.50
10058;BMP180;5068;51.286;7.518;2022-08-07T10:19:21;100223.00;;;26.60
10058;BMP180;5068;51.286;7.518;2022-08-07T10:21:39;100214.00;;;26.60
10058;BMP180;5068;51.286;7.518;2022-08-07T10:24:03;100222.00;;;26.70
10058;BMP180;5068;51.286;7.518;2022-08-07T10:26:00;100223.00;;;26.70
10058;BMP180;5068;51.286;7.518;2022-08-07T10:28:05;100222.00;;;26.80
10058;BMP180;5068;51.286;7.518;2022-08-07T10:30:06;100216.00;;;26.90